Aérodrome :
LOGIN :

S'inscrire | Disclaimer

   EN    FR    IT 

 










Légende :    VFR   VFR Marginal   IFR   IFR Intensif   IFR Très Intensif
Visi : 
Plafond : 
>= 8 km
>= 3000ft
5 à 8 km
1000 à 3000 ft
1500m à 5 km
500 à 1000 ft
800 à 1500m
200 à 500 ft
< 800m
< 200 ft
Symboles :   Orages  Brouillard  Fortes neiges  Fortes précipitations  Vent > 20 kt
SIGMETs :   Divers  Orages  Givrage  Turbulence  Onde Orograph.  Cendres Volcan.







- Altitude de l'aérodrome : 219 ft
- Code IATA : DNR
- Voir les cartes d'approche


LFRD - Dinard

DERNIER METAR :
  • 171500Z AUTO 21013KT 9999 FEW032 OVC062 24/16 Q1015 NOSIG

METARs EXPIRÉS :
  • 171430Z AUTO 22011KT 180V240 9999 FEW039 BKN050 OVC066 24/16 Q1015 NOSIG
  • 171400Z AUTO 22012KT 9999 FEW038 SCT047 BKN054 24/16 Q1015 NOSIG
  • 171330Z AUTO 20011KT 170V240 9999 FEW028 BKN033 BKN043 24/16 Q1016 NOSIG
  • 171300Z AUTO 22010KT 190V260 9999 SCT031 BKN042 BKN068 23/16 Q1016 NOSIG
  • 171230Z AUTO 21010KT 170V250 9999 SCT024 BKN032 BKN054 24/17 Q1016 NOSIG

TAF TAF LFRD
Valide du 17 à 12h jusqu'au 18 à 12h UTC


171100Z 1712/1812 23010KT 9999 BKN025
TEMPO 1712/1718 5000 -SHRA BKN018
TEMPO 1718/1724 5000 RA BKN008
TEMPO 1800/1807 BKN014
BECMG 1800/1803 29010KT
BECMG 1803/1806 BKN015
ATIS : +33 2 99 16 81 50
Pas de NOTAMs connus pour ce terrain.



MET'MAP, la Météo Aéronautique d'un coup d'oeil ! - Copyright ORBIFLY Décembre 2007 - Disclaimer

ORBIFLY MET'MAP TEAM :

Programmation & Développement : Alexandra Zaïnal
Conception & Développement : Baudouin d'Aumeries
Co-Programmation & Développement : Marc-Olivier Méhu
Soutien technique & logistique : Manuel Goepfert

Contact : metmap@orbifly.com




SOURCES & CREDITS :

   NOAA